Time;durP1;ratioP1;P1;durP2;ratioP2;P2;SDS_P1;SDS_P2;PMS_P1;PMS_P2;Temp;Humidity;BMP_temperature;BMP_pressure;BME280_temperature;BME280_humidity;BME280_pressure;Samples;Min_cycle;Max_cycle;Signal;HPM_P1;HPM_P2
2022/06/22 00:02:03;;;;;;;4.55;2.28;;;15.10;68.70;;;;;;5040318;28;20587;-70
2022/06/22 00:05:03;;;;;;;3.45;2.40;;;15.10;68.30;;;;;;5044278;28;20397;-70
2022/06/22 00:07:35;;;;;;;4.75;2.53;;;15.20;68.10;;;;;;5044160;28;20086;-71
2022/06/22 00:10:12;;;;;;;;;;;15.30;68.10;;;;;;5037863;28;20033;-70
2022/06/22 00:12:38;;;;;;;6.35;2.72;;;15.30;68.00;;;;;;5045226;28;20327;-71
2022/06/22 00:15:22;;;;;;;4.75;2.50;;;15.30;67.90;;;;;;5032608;28;20028;-70
2022/06/22 00:17:48;;;;;;;7.25;3.17;;;15.30;67.20;;;;;;5020673;28;20026;-70
2022/06/22 00:20:21;;;;;;;6.55;2.83;;;15.30;66.80;;;;;;5042094;28;20021;-70
2022/06/22 00:22:53;;;;;;;5.85;2.90;;;15.30;65.40;;;;;;5032359;28;20032;-70
2022/06/22 00:25:21;;;;;;;3.17;2.33;;;15.10;65.80;;;;;;5042989;28;20037;-70
2022/06/22 00:27:46;;;;;;;4.20;2.13;;;15.10;66.00;;;;;;5037597;28;20021;-70
2022/06/22 00:30:19;;;;;;;5.30;2.45;;;15.10;66.00;;;;;;5035571;28;20455;-69
2022/06/22 00:33:21;;;;;;;4.97;2.40;;;15.10;66.20;;;;;;5027173;28;20025;-71
2022/06/22 00:35:50;;;;;;;3.80;2.10;;;15.10;65.60;;;;;;5038053;28;20033;-71
2022/06/22 00:38:21;;;;;;;5.82;2.40;;;15.10;65.60;;;;;;5034875;28;20026;-70
2022/06/22 00:40:54;;;;;;;4.40;2.25;;;15.20;65.70;;;;;;5045151;28;20076;-71
2022/06/22 00:43:21;;;;;;;3.38;2.30;;;15.20;65.80;;;;;;5034813;28;20029;-70
2022/06/22 00:45:49;;;;;;;4.25;2.55;;;15.30;65.80;;;;;;5038490;28;20017;-71
2022/06/22 00:48:23;;;;;;;3.60;2.47;;;15.20;65.90;;;;;;5035022;28;20024;-71
2022/06/22 00:51:13;;;;;;;4.15;2.45;;;15.20;66.10;;;;;;5045269;28;20438;-70
2022/06/22 00:53:43;;;;;;;6.85;2.83;;;15.20;66.60;;;;;;5037170;28;20021;-70
2022/06/22 00:56:23;;;;;;;4.93;2.75;;;15.20;66.70;;;;;;5036151;28;20028;-70
2022/06/22 00:59:01;;;;;;;5.28;2.35;;;15.20;66.50;;;;;;5026974;28;20029;-71
2022/06/22 01:01:54;;;;;;;3.83;2.58;;;15.10;65.90;;;;;;5035498;28;20021;-71
2022/06/22 01:04:40;;;;;;;3.97;2.38;;;15.10;65.80;;;;;;5017287;28;20025;-71
2022/06/22 01:07:29;;;;;;;4.10;2.10;;;15.10;66.10;;;;;;5017237;28;20025;-71
2022/06/22 01:10:11;;;;;;;3.40;1.90;;;15.20;65.50;;;;;;5038513;28;20021;-70
2022/06/22 01:12:46;;;;;;;8.43;2.88;;;15.20;65.60;;;;;;5045488;28;20025;-70
2022/06/22 01:15:20;;;;;;;5.82;3.13;;;15.20;65.50;;;;;;5019302;28;20412;-72
2022/06/22 01:17:48;;;;;;;5.05;2.58;;;15.10;65.80;;;;;;5039614;28;20352;-71
2022/06/22 01:20:26;;;;;;;5.20;2.97;;;15.10;65.90;;;;;;5042169;28;20033;-70
2022/06/22 01:23:15;;;;;;;4.97;2.50;;;15.00;66.30;;;;;;5032406;28;20026;-70
2022/06/22 01:26:04;;;;;;;6.90;2.70;;;15.00;66.50;;;;;;5026108;28;20464;-71
2022/06/22 01:28:30;;;;;;;5.95;2.33;;;15.00;66.80;;;;;;5025932;28;20125;-71
2022/06/22 01:31:02;;;;;;;5.32;2.85;;;15.00;66.80;;;;;;5032096;28;20062;-71
2022/06/22 01:33:45;;;;;;;3.35;2.97;;;15.00;66.70;;;;;;5041696;28;20024;-71
2022/06/22 01:36:32;;;;;;;5.70;2.35;;;14.90;66.90;;;;;;5041426;28;20025;-71
2022/06/22 01:38:58;;;;;;;5.53;2.85;;;14.90;67.30;;;;;;5033241;28;20078;-71
2022/06/22 01:41:35;;;;;;;3.28;2.67;;;14.90;67.10;;;;;;5045270;28;20487;-71
2022/06/22 01:44:10;;;;;;;5.22;2.97;;;14.80;67.30;;;;;;5019849;28;20068;-70
2022/06/22 01:47:07;;;;;;;4.35;2.58;;;14.80;67.50;;;;;;5047491;28;20021;-70
2022/06/22 01:49:43;;;;;;;4.78;2.50;;;14.80;67.80;;;;;;5009302;28;20017;-70
2022/06/22 01:52:30;;;;;;;5.40;3.17;;;14.60;68.30;;;;;;5020979;28;20025;-70
2022/06/22 01:55:02;;;;;;;5.18;2.58;;;14.60;68.40;;;;;;5047608;28;20486;-71
2022/06/22 01:57:48;;;;;;;6.03;2.40;;;14.60;68.60;;;;;;5037711;28;20021;-69
2022/06/22 02:00:21;;;;;;;3.67;2.35;;;14.70;68.50;;;;;;5037497;28;20034;-70
2022/06/22 02:02:58;;;;;;;6.63;2.80;;;14.60;68.60;;;;;;5047334;28;20032;-70
2022/06/22 02:05:50;;;;;;;3.10;2.70;;;14.70;68.30;;;;;;5037356;28;20054;-69
2022/06/22 02:08:20;;;;;;;4.70;2.35;;;14.70;68.00;;;;;;5019230;28;20025;-69
2022/06/22 02:11:02;;;;;;;4.63;2.15;;;14.70;68.20;;;;;;5029430;28;20052;-69
2022/06/22 02:13:36;;;;;;;3.65;2.38;;;14.80;67.90;;;;;;5021429;28;20475;-69
2022/06/22 02:16:29;;;;;;;5.50;2.65;;;14.90;67.60;;;;;;5039093;28;20052;-69
2022/06/22 02:18:57;;;;;;;3.83;2.10;;;14.90;67.20;;;;;;5028939;28;20431;-68
2022/06/22 02:21:42;;;;;;;4.45;2.33;;;14.90;67.10;;;;;;5037246;28;20032;-69
2022/06/22 02:24:16;;;;;;;3.25;2.33;;;15.00;66.70;;;;;;5038234;28;20495;-68
2022/06/22 02:27:08;;;;;;;4.20;2.00;;;15.00;66.10;;;;;;5047012;28;20040;-71
2022/06/22 02:29:46;;;;;;;5.88;2.45;;;15.10;66.40;;;;;;5038112;28;20104;-70
2022/06/22 02:32:16;;;;;;;6.78;2.25;;;15.10;66.00;;;;;;5037524;28;20025;-71
2022/06/22 02:34:47;;;;;;;4.45;2.22;;;15.20;65.80;;;;;;5046624;28;20064;-70
2022/06/22 02:37:13;;;;;;;5.70;1.97;;;15.20;65.40;;;;;;5035172;28;20025;-70
2022/06/22 02:39:52;;;;;;;4.47;2.38;;;15.30;65.40;;;;;;5042252;28;20641;-71
2022/06/22 02:45:06;;;;;;;3.50;2.30;;;15.30;65.20;;;;;;5028394;28;20085;-70
2022/06/22 02:48:12;;;;;;;5.05;2.25;;;15.40;64.90;;;;;;5042396;28;20025;-69
2022/06/22 02:50:56;;;;;;;4.05;2.17;;;15.40;65.10;;;;;;5046425;28;20048;-69
2022/06/22 02:53:28;;;;;;;4.57;2.33;;;15.50;64.90;;;;;;5036208;28;20474;-70
2022/06/22 02:55:55;;;;;;;6.07;2.03;;;15.40;64.60;;;;;;5039654;28;20029;-71
2022/06/22 02:58:36;;;;;;;5.03;2.30;;;15.40;64.90;;;;;;5044112;28;20454;-71
2022/06/22 03:01:12;;;;;;;8.35;2.42;;;15.40;64.90;;;;;;5033542;28;20208;-70
2022/06/22 03:03:40;;;;;;;3.42;1.90;;;15.40;64.70;;;;;;5023826;28;20082;-70
2022/06/22 03:06:10;;;;;;;4.20;2.30;;;15.40;64.80;;;;;;5042401;28;20461;-71
2022/06/22 03:08:37;;;;;;;5.25;2.55;;;15.50;64.50;;;;;;5033445;28;20075;-71
2022/06/22 03:11:05;;;;;;;444.67;299.48;;;15.60;64.60;;;;;;5017162;28;20431;-70
2022/06/22 03:13:43;;;;;;;13.60;8.02;;;15.70;64.20;;;;;;5042319;28;20398;-71
2022/06/22 03:16:27;;;;;;;30.02;16.20;;;15.90;63.20;;;;;;5042433;28;20482;-70
2022/06/22 03:18:56;;;;;;;13.98;6.38;;;15.90;63.10;;;;;;5032678;28;20055;-70
2022/06/22 03:21:22;;;;;;;14.40;6.32;;;16.10;62.50;;;;;;5043436;28;20053;-71
2022/06/22 03:23:53;;;;;;;32.17;12.63;;;16.30;62.10;;;;;;5039373;28;20074;-70
2022/06/22 03:26:26;;;;;;;2.80;1.65;;;16.60;61.40;;;;;;5035447;28;20025;-68
2022/06/22 03:29:14;;;;;;;12.38;6.68;;;17.00;60.00;;;;;;5027477;28;20060;-69
2022/06/22 03:31:55;;;;;;;5.20;1.67;;;17.80;57.70;;;;;;5038274;28;20017;-70
2022/06/22 03:34:26;;;;;;;4.60;2.10;;;18.40;55.30;;;;;;5035280;28;20057;-70
2022/06/22 03:36:55;;;;;;;4.75;1.75;;;18.20;55.70;;;;;;5028042;28;20073;-69
2022/06/22 03:39:25;;;;;;;4.25;2.13;;;17.80;56.50;;;;;;5035120;28;20428;-70
2022/06/22 03:42:03;;;;;;;5.05;2.13;;;17.70;56.90;;;;;;5039124;28;20420;-69
2022/06/22 03:44:40;;;;;;;6.97;2.15;;;17.40;58.00;;;;;;5035400;28;20494;-69
2022/06/22 03:47:17;;;;;;;2.13;1.60;;;17.50;57.90;;;;;;5017112;28;20021;-68
2022/06/22 03:49:46;;;;;;;5.80;2.05;;;17.50;57.30;;;;;;5039897;28;20140;-70
2022/06/22 03:52:25;;;;;;;3.58;1.80;;;17.20;58.50;;;;;;5042368;28;20021;-70
2022/06/22 03:55:26;;;;;;;2.70;2.05;;;17.10;59.00;;;;;;5014686;28;20021;-71
2022/06/22 03:57:55;;;;;;;4.18;2.08;;;17.00;59.30;;;;;;5038363;28;20026;-70
2022/06/22 04:00:22;;;;;;;3.40;2.17;;;16.90;59.60;;;;;;5042942;28;20045;-70
2022/06/22 04:02:48;;;;;;;6.43;1.95;;;16.90;59.70;;;;;;5032215;28;20376;-70
2022/06/22 04:05:21;;;;;;;5.72;2.17;;;16.80;59.90;;;;;;5043692;28;20029;-70
2022/06/22 04:07:47;;;;;;;3.40;1.55;;;16.90;59.80;;;;;;5038025;28;20040;-70
2022/06/22 04:10:37;;;;;;;3.25;2.20;;;17.00;59.40;;;;;;5035504;28;20379;-70
2022/06/22 04:13:12;;;;;;;3.55;1.83;;;16.90;59.60;;;;;;4998562;28;20017;-70
2022/06/22 04:15:58;;;;;;;3.17;1.80;;;16.80;60.40;;;;;;5040423;28;20140;-71
2022/06/22 04:18:32;;;;;;;6.60;2.17;;;16.80;60.40;;;;;;5042913;28;20081;-71
2022/06/22 04:21:03;;;;;;;3.28;2.00;;;16.90;60.10;;;;;;5032263;28;20025;-70
2022/06/22 04:23:45;;;;;;;6.07;2.33;;;16.80;60.30;;;;;;5041774;28;20475;-70
2022/06/22 04:26:28;;;;;;;8.18;2.28;;;16.90;60.50;;;;;;5042105;28;20029;-70
2022/06/22 04:29:02;;;;;;;3.28;1.88;;;17.10;60.10;;;;;;5031623;28;20049;-72
2022/06/22 04:31:36;;;;;;;2.97;1.83;;;17.10;60.40;;;;;;5023633;28;20017;-71
2022/06/22 04:34:31;;;;;;;11.13;2.80;;;17.40;59.40;;;;;;5040338;28;20074;-72
2022/06/22 04:36:59;;;;;;;5.10;1.85;;;17.20;60.40;;;;;;5031894;28;20153;-71
2022/06/22 04:39:31;;;;;;;4.85;2.10;;;17.30;59.90;;;;;;5041691;28;20024;-71
2022/06/22 04:42:01;;;;;;;8.90;2.25;;;17.40;60.00;;;;;;5039284;28;20123;-71
2022/06/22 04:44:31;;;;;;;8.63;2.78;;;17.30;60.10;;;;;;5006746;28;20030;-73
2022/06/22 04:47:12;;;;;;;9.82;2.45;;;17.10;60.40;;;;;;5026447;28;20037;-71
2022/06/22 04:49:49;;;;;;;5.35;2.67;;;17.10;60.90;;;;;;5036593;28;20032;-70
2022/06/22 04:52:29;;;;;;;4.57;2.58;;;17.20;60.60;;;;;;5034937;28;20104;-71
2022/06/22 04:54:58;;;;;;;7.13;2.22;;;17.20;61.00;;;;;;5044729;28;20058;-72
2022/06/22 04:57:30;;;;;;;5.13;2.20;;;17.20;60.50;;;;;;5034465;28;20017;-71
2022/06/22 04:59:56;;;;;;;6.03;2.40;;;17.20;60.70;;;;;;5037472;28;20026;-70
2022/06/22 05:02:27;;;;;;;8.27;2.80;;;17.20;60.60;;;;;;5042526;28;20432;-71
2022/06/22 05:05:00;;;;;;;7.43;2.53;;;17.30;60.80;;;;;;5031472;28;20486;-72
2022/06/22 05:07:41;;;;;;;4.13;2.10;;;17.30;60.50;;;;;;5023232;28;20025;-71
2022/06/22 05:10:21;;;;;;;4.20;2.17;;;17.50;60.60;;;;;;5040266;28;20033;-71
2022/06/22 05:13:00;;;;;;;6.22;2.22;;;17.50;60.60;;;;;;5031635;28;20056;-71
2022/06/22 05:15:33;;;;;;;3.13;2.25;;;17.50;60.50;;;;;;5044538;28;20029;-72
2022/06/22 05:20:45;;;;;;;6.13;2.28;;;17.90;59.30;;;;;;4989064;28;20050;-67
2022/06/22 05:23:11;;;;;;;7.72;2.22;;;18.40;58.60;;;;;;4976352;28;20125;-66
2022/06/22 05:25:38;;;;;;;6.22;2.03;;;18.70;56.00;;;;;;5002135;28;20026;-67
2022/06/22 05:28:17;;;;;;;3.13;1.85;;;19.00;55.60;;;;;;5003189;28;20022;-68
2022/06/22 05:30:49;;;;;;;5.78;2.00;;;19.30;54.90;;;;;;5006704;28;20079;-69
2022/06/22 05:33:19;;;;;;;6.63;2.25;;;19.70;53.40;;;;;;5009863;28;20022;-69
2022/06/22 05:35:53;;;;;;;6.10;1.73;;;20.20;52.90;;;;;;5003963;28;20103;-70
2022/06/22 05:38:21;;;;;;;5.10;1.80;;;20.50;52.40;;;;;;5011067;28;20506;-68
2022/06/22 05:40:48;;;;;;;6.75;2.08;;;20.10;52.40;;;;;;5000315;28;20033;-67
2022/06/22 05:43:14;;;;;;;4.85;1.98;;;19.70;54.10;;;;;;5000512;28;20025;-69
2022/06/22 05:45:54;;;;;;;4.60;2.33;;;19.70;54.00;;;;;;4996502;28;20093;-67
2022/06/22 05:48:23;;;;;;;3.95;1.65;;;19.80;54.90;;;;;;5000928;28;20025;-68
2022/06/22 05:51:01;;;;;;;5.68;1.98;;;19.90;54.50;;;;;;5001711;28;20063;-68
2022/06/22 05:53:29;;;;;;;5.13;1.95;;;20.00;53.90;;;;;;4996137;28;20488;-68
2022/06/22 05:56:13;;;;;;;3.20;1.67;;;20.10;53.10;;;;;;4998670;28;20040;-67
2022/06/22 05:58:44;;;;;;;3.25;1.60;;;20.00;53.60;;;;;;5004325;28;20083;-69
2022/06/22 06:01:34;;;;;;;10.13;2.40;;;20.20;53.40;;;;;;5005006;28;20033;-68
2022/06/22 06:04:23;;;;;;;4.32;2.53;;;19.60;53.40;;;;;;5000615;28;20026;-68
2022/06/22 06:06:49;;;;;;;4.90;1.90;;;19.90;54.80;;;;;;4993791;28;20030;-67
2022/06/22 06:09:22;;;;;;;8.02;2.33;;;20.20;53.80;;;;;;5005374;28;20029;-69
2022/06/22 06:12:06;;;;;;;5.72;2.13;;;20.70;51.50;;;;;;5000962;28;20101;-68
2022/06/22 06:14:39;;;;;;;5.85;2.05;;;20.90;50.80;;;;;;4998007;28;20036;-69
2022/06/22 06:17:10;;;;;;;5.85;1.95;;;22.30;49.10;;;;;;5001587;28;20022;-68
2022/06/22 06:19:41;;;;;;;4.57;1.85;;;25.20;42.80;;;;;;4998630;28;20037;-70
2022/06/22 06:22:07;;;;;;;;;;;27.80;37.90;;;;;;5001915;28;20022;-69
2022/06/22 06:27:34;;;;;;;5.10;1.50;;;;;;;;;;5001132;28;19909;-68
2022/06/22 06:27:35;;;;;;;10.82;1.73;;;30.00;32.70;;;;;;5002277;28;20029;-68
2022/06/22 06:30:34;;;;;;;3.97;1.70;;;30.20;32.30;;;;;;5008665;28;20030;-67
2022/06/22 06:33:19;;;;;;;3.47;1.05;;;29.90;31.80;;;;;;5003162;28;20029;-68
2022/06/22 06:35:49;;;;;;;8.15;1.23;;;;;;;;;;5000716;28;20029;-73
2022/06/22 06:38:36;;;;;;;5.38;1.58;;;27.00;36.10;;;;;;4996480;28;20026;-72
2022/06/22 06:41:05;;;;;;;6.28;1.50;;;26.70;36.80;;;;;;4991429;28;20486;-72
2022/06/22 06:43:52;;;;;;;7.85;2.22;;;25.70;38.70;;;;;;5005549;28;20022;-73
2022/06/22 06:46:23;;;;;;;6.63;1.75;;;24.40;40.60;;;;;;5002059;28;20109;-72
2022/06/22 06:48:52;;;;;;;9.35;2.42;;;;;;;;;;4994525;28;20035;-72
2022/06/22 06:51:20;;;;;;;5.43;2.10;;;22.00;47.00;;;;;;5006959;28;20026;-74
2022/06/22 06:54:02;;;;;;;7.57;2.05;;;21.80;47.50;;;;;;4997735;28;20336;-70
2022/06/22 06:56:38;;;;;;;11.45;4.43;;;21.50;48.50;;;;;;4997866;28;20026;-71
2022/06/22 06:59:10;;;;;;;15.38;6.45;;;21.60;49.20;;;;;;5006803;28;20044;-73
2022/06/22 07:01:39;;;;;;;8.30;4.45;;;21.90;49.20;;;;;;4994523;28;20445;-74
2022/06/22 07:04:28;;;;;;;6.97;1.90;;;22.00;48.40;;;;;;4983819;28;20446;-72
2022/06/22 07:07:00;;;;;;;9.88;1.90;;;22.00;47.90;;;;;;4990137;28;20262;-72
2022/06/22 07:09:38;;;;;;;10.38;2.42;;;22.00;47.00;;;;;;4986047;28;20018;-70
2022/06/22 07:12:17;;;;;;;5.20;2.08;;;22.20;47.50;;;;;;4989902;28;20126;-70
2022/06/22 07:14:44;;;;;;;4.28;1.70;;;22.50;45.70;;;;;;4995355;28;20022;-69
2022/06/22 07:17:14;;;;;;;8.13;4.07;;;22.50;46.30;;;;;;5006119;28;20033;-70
2022/06/22 07:19:44;;;;;;;7.50;3.42;;;22.80;46.10;;;;;;5036332;28;20258;-71
2022/06/22 07:22:22;;;;;;;11.27;6.35;;;23.70;44.70;;;;;;5000659;28;20390;-71
2022/06/22 07:25:04;;;;;;;11.13;1.73;;;24.60;43.30;;;;;;4994396;28;20075;-70
2022/06/22 07:27:30;;;;;;;6.13;2.40;;;25.50;40.20;;;;;;4980386;28;20049;-69
2022/06/22 07:30:21;;;;;;;5.20;1.80;;;25.90;38.50;;;;;;5001523;28;20484;-70
2022/06/22 07:33:18;;;;;;;5.47;1.55;;;25.70;38.60;;;;;;4988074;28;20063;-70
2022/06/22 07:36:05;;;;;;;4.50;1.60;;;25.70;37.10;;;;;;4983962;28;20033;-69
2022/06/22 07:38:45;;;;;;;6.50;3.22;;;24.90;39.00;;;;;;4996911;28;20050;-69
2022/06/22 07:41:19;;;;;;;19.43;11.87;;;24.90;40.40;;;;;;5007289;28;20033;-72
2022/06/22 07:44:05;;;;;;;7.50;1.80;;;25.40;39.50;;;;;;4975223;28;20301;-70
2022/06/22 07:46:40;;;;;;;5.38;2.10;;;25.80;38.00;;;;;;5005179;28;20445;-71
2022/06/22 07:49:11;;;;;;;4.90;1.42;;;26.10;37.40;;;;;;4977156;28;20030;-70
2022/06/22 07:51:39;;;;;;;5.47;1.50;;;;;;;;;;5005622;28;20027;-70
2022/06/22 07:54:23;;;;;;;3.65;1.17;;;28.10;33.30;;;;;;5000073;28;20088;-71
2022/06/22 07:56:58;;;;;;;6.20;2.00;;;29.00;32.30;;;;;;4994069;28;20061;-70
2022/06/22 07:59:29;;;;;;;6.13;1.45;;;30.10;30.70;;;;;;4978569;28;20033;-69
2022/06/22 08:01:58;;;;;;;5.75;1.02;;;;;;;;;;5001353;28;20023;-70
2022/06/22 08:04:33;;;;;;;5.03;1.33;;;31.20;27.80;;;;;;5001936;28;20466;-69
2022/06/22 08:07:05;;;;;;;3.38;1.73;;;31.50;27.10;;;;;;4993407;28;20050;-70
2022/06/22 08:10:08;;;;;;;5.30;1.70;;;32.60;26.10;;;;;;5004635;28;20025;-72
2022/06/22 08:12:59;;;;;;;4.40;1.30;;;32.50;26.50;;;;;;5004061;28;20101;-70
2022/06/22 08:15:27;;;;;;;8.90;1.73;;;31.70;25.80;;;;;;4979205;28;20071;-70
2022/06/22 08:17:57;;;;;;;4.57;1.33;;;30.90;27.70;;;;;;5001022;28;20101;-71
2022/06/22 08:20:44;;;;;;;3.22;1.42;;;30.20;28.50;;;;;;5001453;28;20171;-71
2022/06/22 08:23:17;;;;;;;6.45;1.25;;;30.10;28.50;;;;;;4992728;28;20026;-71
2022/06/22 08:25:44;;;;;;;4.57;1.30;;;30.50;28.60;;;;;;5002557;28;20022;-71
2022/06/22 08:28:14;;;;;;;3.88;1.48;;;30.10;28.70;;;;;;4999481;28;20030;-70
2022/06/22 08:30:40;;;;;;;5.70;1.30;;;30.40;28.20;;;;;;4994791;28;20564;-73
2022/06/22 08:33:10;;;;;;;5.97;1.50;;;30.30;28.20;;;;;;4987906;28;20088;-71
2022/06/22 08:35:45;;;;;;;3.40;1.30;;;30.30;28.70;;;;;;4995038;28;20018;-71
2022/06/22 08:38:16;;;;;;;8.93;2.35;;;31.40;27.60;;;;;;4998467;28;20114;-70
2022/06/22 08:40:45;;;;;;;6.88;3.70;;;32.20;26.40;;;;;;5003787;28;20026;-71
2022/06/22 08:43:30;;;;;;;4.07;1.48;;;32.10;26.40;;;;;;4991765;28;20596;-71
2022/06/22 08:46:01;;;;;;;5.07;1.08;;;32.60;25.80;;;;;;4997589;28;20025;-70
2022/06/22 08:48:57;;;;;;;6.07;1.33;;;31.80;26.80;;;;;;4995803;28;20027;-70
2022/06/22 08:51:41;;;;;;;3.38;1.27;;;30.80;27.90;;;;;;4977713;28;20014;-70
2022/06/22 08:54:24;;;;;;;3.88;1.63;;;30.60;27.60;;;;;;4998955;28;20026;-71
2022/06/22 08:57:04;;;;;;;4.47;2.35;;;29.60;28.70;;;;;;5005008;28;20038;-70
2022/06/22 08:59:48;;;;;;;4.50;1.38;;;29.90;29.80;;;;;;4979248;28;20014;-72
2022/06/22 09:02:20;;;;;;;6.82;2.83;;;;;;;;;;4998367;28;20026;-72
2022/06/22 09:04:52;;;;;;;2.95;1.65;;;;;;;;;;5004016;28;20033;-70
2022/06/22 09:07:37;;;;;;;13.00;7.50;;;30.40;28.90;;;;;;4992452;28;20495;-70
2022/06/22 09:10:31;;;;;;;14.30;4.88;;;30.70;28.20;;;;;;4999361;28;20250;-70
2022/06/22 09:13:31;;;;;;;4.47;1.63;;;31.20;27.10;;;;;;5005426;28;20296;-70
2022/06/22 09:16:49;;;;;;;7.57;3.57;;;31.40;27.00;;;;;;4998024;28;20558;-70
2022/06/22 09:19:22;;;;;;;4.18;1.42;;;32.20;26.20;;;;;;4990701;28;20555;-69
2022/06/22 09:22:12;;;;;;;4.05;1.85;;;31.30;26.00;;;;;;5001134;28;20023;-71
2022/06/22 09:24:59;;;;;;;4.53;2.17;;;30.40;27.60;;;;;;5003030;28;20029;-70
2022/06/22 09:27:32;;;;;;;4.15;1.20;;;30.40;28.00;;;;;;4978708;28;20052;-69
2022/06/22 09:30:17;;;;;;;8.88;1.67;;;30.40;27.10;;;;;;4973632;28;20044;-66
2022/06/22 09:33:11;;;;;;;3.05;1.52;;;30.60;27.80;;;;;;4986181;28;20018;-69
2022/06/22 09:36:09;;;;;;;5.88;1.33;;;30.90;27.10;;;;;;4991041;28;20022;-68
2022/06/22 09:39:01;;;;;;;3.50;1.45;;;30.80;26.00;;;;;;5021772;28;20061;-68
2022/06/22 09:41:55;;;;;;;4.25;1.20;;;30.40;26.10;;;;;;4978000;28;20074;-68
2022/06/22 09:44:23;;;;;;;3.80;1.20;;;29.60;27.60;;;;;;4995987;28;20030;-68
2022/06/22 09:46:58;;;;;;;4.07;1.30;;;29.60;27.40;;;;;;5004191;28;20437;-69
2022/06/22 09:50:02;;;;;;;7.20;1.55;;;29.40;28.70;;;;;;4976712;28;20022;-70
2022/06/22 09:52:28;;;;;;;6.32;1.33;;;29.90;28.50;;;;;;4977993;28;20022;-70
2022/06/22 09:58:21;;;;;;;5.32;1.55;;;30.50;27.00;;;;;;4975047;28;20059;-70
2022/06/22 10:01:01;;;;;;;3.65;1.10;;;30.30;26.30;;;;;;5002451;28;20523;-70
2022/06/22 10:03:43;;;;;;;4.72;1.38;;;30.90;25.50;;;;;;4980947;28;20025;-71
2022/06/22 10:06:26;;;;;;;9.13;1.58;;;31.50;25.40;;;;;;5001747;28;20388;-70
2022/06/22 10:09:09;;;;;;;1.52;1.05;;;32.20;24.70;;;;;;5007509;28;20026;-69
2022/06/22 10:11:52;;;;;;;12.18;1.60;;;31.90;23.90;;;;;;4966024;28;20075;-70
2022/06/22 10:14:39;;;;;;;3.78;1.23;;;31.20;24.70;;;;;;4999852;28;20072;-72
2022/06/22 10:17:29;;;;;;;2.03;1.08;;;30.80;25.20;;;;;;4989906;28;20018;-71
2022/06/22 10:20:01;;;;;;;3.40;0.88;;;30.90;23.50;;;;;;4999580;28;20030;-70
2022/06/22 10:22:35;;;;;;;6.28;2.10;;;30.40;23.40;;;;;;4998569;28;20034;-69
2022/06/22 10:25:01;;;;;;;7.18;3.65;;;30.30;25.80;;;;;;5007985;28;20246;-70
2022/06/22 10:27:35;;;;;;;2.60;1.50;;;30.70;26.10;;;;;;4995553;28;20041;-70
2022/06/22 10:30:10;;;;;;;7.38;1.20;;;30.40;25.60;;;;;;5002106;28;20038;-69
2022/06/22 10:33:15;;;;;;;5.72;1.20;;;29.40;26.40;;;;;;5005035;28;20101;-69
2022/06/22 10:36:10;;;;;;;3.10;1.50;;;28.00;26.80;;;;;;4985159;28;20021;-70
2022/06/22 10:38:42;;;;;;;3.60;1.30;;;27.30;29.10;;;;;;4996697;28;20060;-71
2022/06/22 10:48:03;;;;;;;6.15;1.42;;;27.60;29.90;;;;;;4981354;28;20556;-72
2022/06/22 10:50:32;;;;;;;7.07;1.65;;;27.40;29.60;;;;;;4997727;28;20027;-72
2022/06/22 10:53:35;;;;;;;2.33;1.15;;;27.30;29.40;;;;;;5006760;28;20396;-71
2022/06/22 10:56:24;;;;;;;2.95;1.30;;;27.00;30.00;;;;;;5000083;28;20479;-71
2022/06/22 10:59:05;;;;;;;6.43;1.60;;;27.30;29.60;;;;;;4994126;28;20037;-68
2022/06/22 11:01:42;;;;;;;4.78;1.58;;;27.70;29.00;;;;;;4981187;28;20120;-68
2022/06/22 11:04:33;;;;;;;4.55;1.30;;;28.30;28.80;;;;;;5000292;28;20132;-72
2022/06/22 11:07:36;;;;;;;4.00;1.30;;;28.90;27.00;;;;;;5006622;28;20140;-69
2022/06/22 11:10:13;;;;;;;2.83;1.05;;;28.90;26.70;;;;;;4998978;28;20488;-72
2022/06/22 11:12:59;;;;;;;5.22;1.42;;;29.30;26.80;;;;;;4994933;28;20026;-69
2022/06/22 11:16:06;;;;;;;2.92;1.33;;;29.70;26.00;;;;;;4989562;28;20042;-71
2022/06/22 11:18:36;;;;;;;4.32;1.30;;;29.80;26.20;;;;;;4976024;23;20041;-72
2022/06/22 11:21:43;;;;;;;2.43;1.00;;;29.60;26.20;;;;;;5024052;28;20071;-72
2022/06/22 11:24:38;;;;;;;5.15;1.23;;;29.00;27.60;;;;;;5043124;28;20440;-73
2022/06/22 11:33:48;;;;;;;2.75;0.90;;;29.70;26.50;;;;;;5025655;28;20461;-72
2022/06/22 11:36:48;;;;;;;5.25;1.50;;;30.10;25.30;;;;;;5020553;28;20025;-73
2022/06/22 11:39:14;;;;;;;4.73;1.13;;;30.50;25.20;;;;;;5012824;28;20056;-73
2022/06/22 11:42:04;;;;;;;4.30;1.60;;;30.00;25.40;;;;;;5023190;28;20261;-72
2022/06/22 11:44:41;;;;;;;3.97;1.33;;;30.00;25.60;;;;;;5011301;28;20108;-73
2022/06/22 11:47:26;;;;;;;2.53;1.10;;;30.10;25.20;;;;;;5025530;28;20100;-72
2022/06/22 11:50:24;;;;;;;5.78;1.10;;;29.50;26.20;;;;;;5017380;28;20039;-72
2022/06/22 11:53:02;;;;;;;3.67;1.55;;;29.00;26.00;;;;;;5013421;28;20017;-72
2022/06/22 11:55:37;;;;;;;3.13;1.15;;;29.10;27.10;;;;;;4981665;28;20041;-72
2022/06/22 11:58:21;;;;;;;4.50;1.20;;;29.30;26.10;;;;;;5020012;28;20018;-73
2022/06/22 12:01:08;;;;;;;2.38;1.23;;;28.90;26.70;;;;;;5024997;28;20108;-72
2022/06/22 12:03:36;;;;;;;8.40;1.55;;;28.20;28.40;;;;;;5000831;28;20029;-73
2022/06/22 12:06:04;;;;;;;2.42;1.70;;;28.20;28.20;;;;;;5019678;28;20048;-72
2022/06/22 12:09:21;;;;;;;5.55;1.50;;;28.20;29.00;;;;;;5021866;28;20105;-74
2022/06/22 12:12:38;;;;;;;5.00;1.48;;;28.60;28.90;;;;;;5015000;28;20444;-73
2022/06/22 12:15:29;;;;;;;3.97;1.77;;;29.10;28.10;;;;;;5011958;28;20038;-72
2022/06/22 12:18:19;;;;;;;3.83;1.40;;;29.20;27.70;;;;;;5016964;28;20053;-75
2022/06/22 12:20:48;;;;;;;9.05;1.10;;;29.20;27.20;;;;;;5026249;28;20045;-73
2022/06/22 12:23:37;;;;;;;4.53;1.67;;;29.10;27.70;;;;;;5000316;28;20506;-72
2022/06/22 12:26:24;;;;;;;4.63;1.50;;;29.00;27.70;;;;;;5019508;28;20033;-73
2022/06/22 12:29:01;;;;;;;8.27;2.20;;;28.60;27.60;;;;;;5024820;28;20501;-74
2022/06/22 12:31:37;;;;;;;6.57;1.65;;;28.30;28.10;;;;;;5003562;28;20058;-75
2022/06/22 12:34:16;;;;;;;5.32;1.63;;;28.40;28.00;;;;;;5020399;28;20156;-75
2022/06/22 12:36:49;;;;;;;3.25;1.40;;;28.60;27.60;;;;;;5035536;28;20414;-75
2022/06/22 12:39:24;;;;;;;4.63;1.50;;;29.10;27.10;;;;;;5011504;28;20105;-75
2022/06/22 12:41:53;;;;;;;7.35;1.70;;;29.00;27.00;;;;;;5021143;28;20030;-73
2022/06/22 12:44:29;;;;;;;11.05;7.47;;;29.00;27.40;;;;;;5010308;28;20026;-73
2022/06/22 12:47:15;;;;;;;2.05;1.85;;;29.10;28.20;;;;;;5025401;28;20398;-74
2022/06/22 12:49:52;;;;;;;3.05;1.40;;;29.60;27.00;;;;;;4981420;28;20468;-75
2022/06/22 12:52:30;;;;;;;5.70;3.03;;;29.70;26.70;;;;;;5020198;28;20070;-74
2022/06/22 12:55:00;;;;;;;4.68;2.60;;;29.90;26.60;;;;;;5012123;28;20495;-75
2022/06/22 12:57:36;;;;;;;3.20;1.55;;;30.20;26.80;;;;;;5005930;28;20021;-75
2022/06/22 13:00:07;;;;;;;3.38;1.73;;;30.60;25.50;;;;;;5009802;28;20022;-74
2022/06/22 13:02:36;;;;;;;5.43;3.38;;;30.20;25.50;;;;;;5005979;28;20034;-74
2022/06/22 13:05:13;;;;;;;2.60;2.10;;;30.30;25.40;;;;;;5015766;28;20045;-74
2022/06/22 13:08:00;;;;;;;3.15;1.58;;;30.60;25.50;;;;;;5021085;28;20014;-73
2022/06/22 13:10:38;;;;;;;5.13;2.70;;;31.00;25.10;;;;;;5002004;28;20026;-76
2022/06/22 13:13:15;;;;;;;8.80;2.08;;;31.40;25.40;;;;;;5024476;28;20021;-74
2022/06/22 13:15:50;;;;;;;4.22;2.63;;;31.80;24.50;;;;;;4988631;28;20025;-73
2022/06/22 13:18:25;;;;;;;7.60;2.30;;;31.40;24.50;;;;;;5019199;28;20026;-77
2022/06/22 13:21:09;;;;;;;2.10;1.17;;;31.60;25.20;;;;;;5012496;28;20064;-75
2022/06/22 13:23:38;;;;;;;2.70;1.25;;;31.80;24.40;;;;;;5000243;28;20036;-74
2022/06/22 13:26:29;;;;;;;6.57;1.83;;;31.60;24.30;;;;;;5018291;28;20510;-74
2022/06/22 13:29:13;;;;;;;16.73;10.00;;;30.60;25.00;;;;;;5023948;28;20033;-74
2022/06/22 13:31:42;;;;;;;4.30;1.45;;;30.00;25.80;;;;;;5014245;28;20024;-72
2022/06/22 13:34:18;;;;;;;8.05;1.75;;;30.00;25.90;;;;;;5018486;28;20026;-73
2022/06/22 13:36:59;;;;;;;2.63;1.20;;;29.00;26.90;;;;;;5011899;28;20570;-75
2022/06/22 13:39:46;;;;;;;7.63;4.18;;;28.80;27.70;;;;;;5000378;28;20021;-73
2022/06/22 13:42:39;;;;;;;6.07;3.45;;;29.00;27.50;;;;;;5032343;28;20021;-73
2022/06/22 13:45:42;;;;;;;8.85;6.50;;;29.40;27.10;;;;;;5030201;28;20395;-72
2022/06/22 13:48:19;;;;;;;9.45;3.25;;;30.00;27.20;;;;;;5021146;28;20513;-72
2022/06/22 13:51:14;;;;;;;4.30;2.58;;;;;;;;;;5016302;28;20074;-71
2022/06/22 13:53:42;;;;;;;4.78;1.80;;;;;;;;;;5004002;28;20044;-70
2022/06/22 13:56:21;;;;;;;6.65;3.50;;;;;;;;;;5001318;28;20102;-71
2022/06/22 13:58:52;;;;;;;2.72;2.45;;;31.40;25.40;;;;;;5024141;28;20057;-71
2022/06/22 14:01:32;;;;;;;5.18;3.90;;;31.90;25.40;;;;;;5012639;28;20035;-69
2022/06/22 14:04:08;;;;;;;4.13;2.00;;;32.20;24.80;;;;;;5019659;28;20509;-71
2022/06/22 14:07:03;;;;;;;5.53;2.42;;;32.70;24.30;;;;;;5022810;28;20031;-71
2022/06/22 14:09:44;;;;;;;5.18;1.95;;;32.20;24.00;;;;;;4998519;28;20037;-70
2022/06/22 14:12:21;;;;;;;3.58;1.30;;;32.00;24.40;;;;;;5020655;28;20022;-70